Time;durP1;ratioP1;P1;durP2;ratioP2;P2;SDS_P1;SDS_P2;PMS_P1;PMS_P2;Temp;Humidity;BMP_temperature;BMP_pressure;BME280_temperature;BME280_humidity;BME280_pressure;Samples;Min_cycle;Max_cycle;Signal;HPM_P1;HPM_P2
2023/02/05 00:01:20;;;;;;;33.30;13.35;;;4.60;99.90;;;-144.05;77.97;57044.25;5014979;28;20029;-86
2023/02/05 00:03:46;;;;;;;36.00;13.98;;;4.70;99.90;;;-144.05;78.31;57052.75;4998351;28;20176;-85
2023/02/05 00:06:12;;;;;;;38.63;13.07;;;4.70;99.90;;;-144.05;78.29;57048.50;5014019;28;20401;-85
2023/02/05 00:08:38;;;;;;;37.60;13.23;;;4.80;99.90;;;-144.05;78.43;57061.22;5015160;28;20030;-84
2023/02/05 00:11:08;;;;;;;43.65;14.43;;;4.70;99.90;;;-144.05;78.70;57031.50;4997594;28;20041;-84
2023/02/05 00:13:43;;;;;;;44.95;15.32;;;4.80;99.90;;;-144.05;78.61;57044.25;5014925;28;20040;-86
2023/02/05 00:16:15;;;;;;;40.92;15.45;;;5.00;99.90;;;-144.05;78.85;57027.25;5014070;28;20112;-83
2023/02/05 00:18:42;;;;;;;43.97;14.95;;;4.90;99.90;;;-144.05;78.55;57018.75;5014069;28;20421;-84
2023/02/05 00:21:09;;;;;;;34.63;13.27;;;4.90;99.90;;;-144.05;78.25;57035.75;5016749;28;20125;-84
2023/02/05 00:23:36;;;;;;;32.53;12.90;;;4.90;99.90;;;-144.05;77.95;57035.75;5014972;28;20029;-84
2023/02/05 00:26:05;;;;;;;38.45;14.07;;;4.90;99.90;;;-144.05;78.13;57056.97;4998757;28;20393;-85
2023/02/05 00:28:34;;;;;;;33.05;13.90;;;4.80;99.90;;;-144.05;78.16;57046.38;5015611;28;20084;-83
2023/02/05 00:31:11;;;;;;;46.97;15.73;;;4.80;99.90;;;-144.05;78.54;57018.75;5015168;28;20029;-84
2023/02/05 00:33:37;;;;;;;41.42;15.20;;;4.90;99.90;;;-144.05;78.86;57040.00;5014367;28;20034;-86
2023/02/05 00:36:05;;;;;;;33.75;15.02;;;4.90;99.90;;;-144.05;78.73;57010.25;4997517;28;20080;-82
2023/02/05 00:38:31;;;;;;;40.22;14.95;;;4.90;99.90;;;-144.05;78.62;57044.25;4997287;28;20021;-81
2023/02/05 00:40:57;;;;;;;42.80;14.13;;;4.90;99.90;;;-144.05;78.39;57048.50;4997551;28;20240;-85
2023/02/05 00:43:23;;;;;;;46.40;13.80;;;5.00;99.90;;;-144.05;78.01;57063.34;4996863;28;20072;-85
2023/02/05 00:45:49;;;;;;;36.45;13.48;;;5.00;99.90;;;-144.05;78.33;57065.47;4997000;28;20030;-84
2023/02/05 00:48:15;;;;;;;42.05;15.18;;;4.90;99.90;;;-144.05;78.36;57056.97;4996579;28;20033;-85
2023/02/05 00:50:41;;;;;;;38.35;14.30;;;5.00;99.90;;;-144.05;78.28;57052.75;4997317;28;20121;-84
2023/02/05 00:53:07;;;;;;;42.42;14.80;;;5.00;99.90;;;-144.05;78.37;57040.00;4996951;28;20041;-85
2023/02/05 00:55:33;;;;;;;42.45;15.18;;;5.00;99.90;;;-144.05;78.43;57052.75;4996828;28;20076;-83
2023/02/05 00:58:00;;;;;;;35.20;14.02;;;5.00;99.90;;;-144.05;78.06;57040.00;4997112;28;20018;-82
2023/02/05 01:00:26;;;;;;;29.02;14.25;;;5.00;99.90;;;-144.05;78.22;57040.00;4996979;28;20030;-84
2023/02/05 01:02:56;;;;;;;43.15;15.13;;;5.00;99.90;;;-144.05;78.32;57031.50;5008007;28;20093;-84
2023/02/05 01:05:32;;;;;;;;;;;;;;;;;;;;;
2023/02/05 01:08:14;;;;;;;;;;;;;;;;;;;;;
2023/02/05 01:14:29;;;;;;;35.80;13.60;;;5.20;99.90;;;-144.05;78.07;57040.00;5022245;28;20041;-84
2023/02/05 01:18:13;;;;;;;40.58;15.20;;;5.20;99.90;;;-144.05;78.00;57042.13;5008816;28;20026;-84
2023/02/05 01:21:28;;;;;;;32.08;13.98;;;5.30;99.90;;;-144.05;78.03;57048.50;5007978;28;20082;-85
2023/02/05 01:24:53;;;;;;;;;;;;;;;;;;;;;
2023/02/05 01:28:42;;;;;;;;;;;;;;;;;;;;;
2023/02/05 01:31:38;;;;;;;39.78;13.20;;;5.30;99.90;;;-144.05;77.43;57029.38;5030044;28;20030;-85
2023/02/05 01:35:08;;;;;;;;;;;;;;;;;;;;;
2023/02/05 01:38:25;;;;;;;;;;;;;;;;;;;;;
2023/02/05 01:41:08;;;;;;;;;;;;;;;;;;;;;
2023/02/05 01:44:17;;;;;;;38.78;13.30;;;5.40;99.90;;;-144.05;76.94;57033.63;5026862;28;20060;-85
2023/02/05 01:47:02;;;;;;;;;;;;;;;;;;;;;
2023/02/05 01:57:20;;;;;;;41.50;14.45;;;5.40;99.90;;;-144.05;76.77;57033.63;5023109;28;20034;-84
2023/02/05 02:00:38;;;;;;;;;;;;;;;;;;;;;
2023/02/05 02:04:19;;;;;;;40.65;13.02;;;5.50;99.90;;;-144.05;76.63;57029.38;5019203;28;20000;-85
2023/02/05 02:07:10;;;;;;;;;;;;;;;;;;;;;
2023/02/05 02:09:57;;;;;;;;;;;;;;;;;;;;;
2023/02/05 02:13:19;;;;;;;43.67;13.98;;;5.60;99.90;;;-144.05;76.12;57020.88;5010787;28;20090;-83
2023/02/05 02:16:28;;;;;;;42.38;13.30;;;5.70;99.90;;;-144.05;75.63;57027.25;5010948;28;20040;-85
2023/02/05 02:20:39;;;;;;;;;;;;;;;;;;;;;
2023/02/05 02:23:56;;;;;;;;;;;;;;;;;;;;;
2023/02/05 02:27:54;;;;;;;31.50;12.70;;;5.70;99.90;;;-144.05;75.45;57044.25;4962132;28;20069;-84
2023/02/05 02:30:34;;;;;;;31.23;11.95;;;5.70;99.90;;;-144.05;75.40;57031.50;4961626;28;20041;-85
2023/02/05 02:33:23;;;;;;;31.42;12.43;;;5.70;99.90;;;-144.05;75.34;57027.25;5027449;28;20048;-85
2023/02/05 02:36:40;;;;;;;42.40;12.43;;;5.70;99.90;;;-144.05;75.72;57052.75;5013590;28;20022;-84
2023/02/05 02:40:24;;;;;;;;;;;;;;;;;;;;;
2023/02/05 02:43:45;;;;;;;38.65;13.40;;;5.80;99.90;;;-144.05;75.58;57029.38;5032076;28;20057;-84
2023/02/05 02:46:56;;;;;;;40.00;12.75;;;5.80;99.90;;;-144.05;75.53;56993.25;5004758;28;20048;-84
2023/02/05 02:50:43;;;;;;;;;;;;;;;;;;;;;
2023/02/05 02:54:23;;;;;;;;;;;;;;;;;;;;;
2023/02/05 02:57:39;;;;;;;38.50;11.98;;;5.80;99.90;;;-144.05;75.40;57040.00;5028000;28;20053;-85
2023/02/05 03:00:18;;;;;;;36.58;11.75;;;6.00;99.90;;;-144.05;75.37;57023.00;5009326;28;20065;-84
2023/02/05 03:03:04;;;;;;;;;;;;;;;;;;;;;
2023/02/05 03:05:52;;;;;;;37.05;11.65;;;6.00;99.90;;;-144.05;75.67;57012.38;5027348;28;20554;-85
2023/02/05 03:09:18;;;;;;;32.38;11.55;;;6.00;99.90;;;-144.05;75.68;57018.75;5026010;28;20501;-83
2023/02/05 03:16:43;;;;;;;29.13;11.82;;;6.10;99.90;;;-144.05;75.39;57029.38;5019479;28;20053;-85
2023/02/05 03:19:36;;;;;;;34.42;11.20;;;6.10;99.90;;;-144.05;75.55;57003.88;5009965;28;20026;-85
2023/02/05 03:22:57;;;;;;;38.35;12.07;;;6.10;99.90;;;-144.05;75.43;57010.25;5009624;28;20037;-84
2023/02/05 03:25:34;;;;;;;36.63;10.25;;;6.20;99.90;;;-144.05;75.61;57025.13;5008216;28;20037;-85
2023/02/05 03:28:00;;;;;;;39.28;11.95;;;6.10;99.90;;;-144.05;75.58;57029.38;5023201;28;20048;-84
2023/02/05 03:30:52;;;;;;;32.53;11.43;;;6.20;99.90;;;-144.05;75.68;57027.25;5009642;28;20037;-84
2023/02/05 03:34:04;;;;;;;37.78;10.90;;;6.10;99.90;;;-144.05;76.31;57027.25;5009912;28;20093;-85
2023/02/05 03:36:59;;;;;;;37.95;12.10;;;6.10;99.90;;;-144.05;76.78;57031.50;5015060;28;20301;-84
2023/02/05 03:40:08;;;;;;;39.35;12.52;;;6.10;99.90;;;-144.05;77.11;57027.25;5008145;28;20030;-86
2023/02/05 03:43:14;;;;;;;39.50;12.98;;;6.00;99.90;;;-144.05;77.33;57061.22;5002465;28;20034;-85
2023/02/05 03:46:46;;;;;;;34.13;12.38;;;6.10;99.90;;;-144.05;77.48;57031.50;5002589;28;20026;-85
2023/02/05 03:50:02;;;;;;;47.53;13.45;;;6.00;99.90;;;-144.05;77.83;57056.97;4985122;28;20147;-85
2023/02/05 03:52:57;;;;;;;38.28;13.20;;;5.90;99.90;;;-144.05;78.24;57016.63;5011465;28;20136;-85
2023/02/05 03:56:37;;;;;;;41.13;13.48;;;5.90;99.90;;;-144.05;78.00;57056.97;5022273;28;20038;-84
2023/02/05 03:59:45;;;;;;;34.42;14.18;;;5.80;99.90;;;-144.05;78.23;57031.50;4965800;28;20041;-85
2023/02/05 04:02:58;;;;;;;;;;;;;;;;;;;;;
2023/02/05 04:05:36;;;;;;;;;;;;;;;;;;;;;
2023/02/05 04:08:10;;;;;;;36.20;13.95;;;5.80;99.90;;;-144.05;77.98;57018.75;5026551;28;20064;-84
2023/02/05 04:10:36;;;;;;;36.38;14.38;;;5.80;99.90;;;-144.05;77.71;57044.25;5007261;28;20026;-85
2023/02/05 04:13:40;;;;;;;41.67;14.18;;;5.70;99.90;;;-144.05;78.13;57044.25;5007069;28;20026;-85
2023/02/05 04:16:21;;;;;;;;;;;;;;;;;;;;;
2023/02/05 04:19:26;;;;;;;44.92;16.38;;;5.80;99.90;;;-144.05;78.83;57001.75;5029222;28;20064;-85
2023/02/05 04:21:57;;;;;;;48.08;16.27;;;5.80;99.90;;;-144.05;79.09;57027.25;4997229;28;20037;-85
2023/02/05 04:25:03;;;;;;;44.97;16.60;;;5.90;99.90;;;-144.05;78.77;57044.25;5030184;28;20052;-85
2023/02/05 04:27:48;;;;;;;56.10;16.20;;;5.90;99.90;;;-144.05;78.53;57044.25;5009589;28;20048;-84
2023/02/05 04:30:33;;;;;;;44.72;16.73;;;6.00;99.90;;;-144.05;77.90;57006.00;5009184;28;20033;-84
2023/02/05 04:33:19;;;;;;;42.55;15.93;;;6.10;99.90;;;-144.05;77.71;57010.25;5008473;28;20030;-85
2023/02/05 04:36:28;;;;;;;;;;;6.10;99.90;;;-144.05;77.69;57020.88;5008337;28;20090;-85
2023/02/05 04:45:33;;;;;;;;;;;;;;;;;;;;;
2023/02/05 04:48:10;;;;;;;;;;;;;;;;;;;;;
2023/02/05 04:50:50;;;;;;;44.63;16.13;;;6.10;99.90;;;-144.05;78.79;57025.13;5025485;28;20093;-84
2023/02/05 04:53:15;;;;;;;45.75;16.63;;;6.10;99.90;;;-144.05;78.82;56995.38;5009963;28;20472;-83
2023/02/05 04:55:41;;;;;;;47.83;16.38;;;6.20;99.90;;;-144.05;79.23;57044.25;5028418;28;20086;-84
2023/02/05 04:58:07;;;;;;;49.35;16.95;;;6.20;99.90;;;-144.05;79.75;57006.00;5008494;28;20026;-83
2023/02/05 05:00:33;;;;;;;44.38;17.63;;;6.20;99.90;;;-144.05;79.97;57016.63;5000325;28;20022;-82
2023/02/05 05:02:59;;;;;;;47.45;17.15;;;6.10;99.90;;;-144.05;80.79;57033.63;5000569;28;20077;-82
2023/02/05 05:05:25;;;;;;;41.85;16.08;;;6.20;99.90;;;-144.05;80.67;57040.00;5002769;28;20084;-82
2023/02/05 05:07:52;;;;;;;52.40;17.98;;;6.20;99.90;;;-144.05;81.14;57031.50;5005602;28;20097;-83
2023/02/05 05:10:18;;;;;;;46.83;17.90;;;6.10;99.90;;;-144.05;80.84;57003.88;4999510;28;20044;-83
2023/02/05 05:12:44;;;;;;;47.45;18.05;;;6.20;99.90;;;-144.05;81.18;57023.00;4999615;28;20117;-84
2023/02/05 05:15:10;;;;;;;44.00;16.73;;;6.10;99.90;;;-144.05;81.48;57010.25;5018346;28;20022;-83
2023/02/05 05:17:36;;;;;;;51.47;18.92;;;6.10;99.90;;;-144.05;81.89;56997.50;5005206;28;20541;-83
2023/02/05 05:20:03;;;;;;;53.55;18.05;;;6.10;99.90;;;-144.05;81.85;57014.50;5006399;28;20037;-83
2023/02/05 05:22:29;;;;;;;50.80;20.33;;;6.10;99.90;;;-144.05;82.45;57020.88;5007179;28;20030;-83
2023/02/05 05:24:55;;;;;;;56.35;20.17;;;6.10;99.90;;;-144.05;82.68;56995.38;5008210;28;20026;-84
2023/02/05 05:27:22;;;;;;;61.20;21.70;;;6.10;99.90;;;-144.05;83.07;57014.50;5014273;28;20049;-82
2023/02/05 05:29:48;;;;;;;57.75;20.15;;;6.10;99.90;;;-144.05;82.89;57010.25;5014823;28;20065;-84
2023/02/05 05:32:14;;;;;;;52.38;20.25;;;6.00;99.90;;;-144.05;82.96;57010.25;5027483;28;20033;-84
2023/02/05 05:34:39;;;;;;;51.30;19.83;;;6.10;99.90;;;-144.05;82.81;57025.13;5012949;28;20124;-83
2023/02/05 05:37:05;;;;;;;52.17;19.92;;;6.10;99.90;;;-144.05;82.88;57046.38;5013557;28;20013;-83
2023/02/05 05:45:01;;;;;;;54.85;21.10;;;6.10;99.90;;;-144.05;83.63;57006.00;5036443;28;20096;-83
2023/02/05 05:47:27;;;;;;;71.22;24.13;;;6.00;99.90;;;-144.05;83.63;57014.50;5020565;28;20046;-81
2023/02/05 05:49:52;;;;;;;57.50;21.98;;;6.10;99.90;;;-144.05;84.20;57031.50;5016661;28;20347;-84
2023/02/05 05:52:18;;;;;;;61.65;23.23;;;6.10;99.90;;;-144.05;84.03;57029.38;5008408;28;20501;-84
2023/02/05 05:54:45;;;;;;;54.50;22.25;;;6.10;99.90;;;-144.05;84.07;57016.63;5010205;28;20030;-83
2023/02/05 05:57:12;;;;;;;59.78;21.95;;;6.10;99.90;;;-144.05;84.02;57014.50;5026611;28;20030;-83
2023/02/05 05:59:38;;;;;;;61.90;22.17;;;6.10;99.90;;;-144.05;83.88;57023.00;5028783;28;20030;-84
2023/02/05 06:02:13;;;;;;;55.47;21.92;;;6.20;99.90;;;-144.05;84.04;57025.13;5024414;28;20036;-85
2023/02/05 06:04:51;;;;;;;;;;;;;;;;;;;;;
2023/02/05 06:07:17;;;;;;;54.13;21.67;;;6.20;99.90;;;-144.05;84.16;57027.25;5026062;28;20117;-84
2023/02/05 06:09:45;;;;;;;56.95;22.83;;;6.20;99.90;;;-144.05;84.40;57023.00;5008847;28;20038;-85
2023/02/05 06:12:11;;;;;;;58.88;23.98;;;6.10;99.90;;;-144.05;84.66;57018.75;5023858;28;20037;-84
2023/02/05 06:14:37;;;;;;;58.15;23.88;;;6.10;99.90;;;-144.05;84.48;57018.75;5018148;28;20053;-84
2023/02/05 06:17:06;;;;;;;62.67;23.80;;;6.10;99.90;;;-144.05;84.67;57008.13;5020716;28;20068;-82
2023/02/05 06:19:32;;;;;;;62.70;24.88;;;6.10;99.90;;;-144.05;85.09;57027.25;5021600;28;20030;-84
2023/02/05 06:21:58;;;;;;;54.05;24.33;;;6.10;99.90;;;-144.05;85.17;56982.66;5007987;28;20069;-84
2023/02/05 06:24:26;;;;;;;58.38;24.83;;;6.10;99.90;;;-144.05;85.11;57006.00;5008677;28;20525;-84
2023/02/05 06:26:52;;;;;;;63.88;26.30;;;6.10;99.90;;;-144.05;85.23;57031.50;5026088;28;20044;-84
2023/02/05 06:29:18;;;;;;;74.68;29.80;;;6.20;99.90;;;-144.05;85.45;57033.63;5008832;28;20033;-83
2023/02/05 06:31:44;;;;;;;64.10;27.08;;;6.10;99.90;;;-144.05;85.40;57016.63;5023815;28;20121;-84
2023/02/05 06:34:10;;;;;;;73.18;28.75;;;6.20;99.90;;;-144.05;85.71;57023.00;5007282;28;20508;-81
2023/02/05 06:36:36;;;;;;;82.97;30.45;;;6.10;99.90;;;-144.05;86.04;57018.75;5024756;28;20387;-83
2023/02/05 06:39:02;;;;;;;76.13;31.10;;;6.20;99.90;;;-144.05;85.83;57046.38;5007917;28;20030;-82
2023/02/05 06:41:28;;;;;;;85.50;33.40;;;6.20;99.90;;;-144.05;85.82;56982.66;5010262;28;20374;-83
2023/02/05 06:43:54;;;;;;;72.38;31.25;;;6.20;99.90;;;-144.05;85.69;57003.88;5009477;28;20033;-83
2023/02/05 06:46:19;;;;;;;69.60;29.52;;;6.20;99.90;;;-144.05;85.62;57010.25;5011404;28;20072;-84
2023/02/05 06:48:45;;;;;;;78.07;31.95;;;6.20;99.90;;;-144.05;85.72;57012.38;5012225;28;20040;-84
2023/02/05 06:51:12;;;;;;;81.40;32.75;;;6.10;99.90;;;-144.05;85.76;57031.50;5008936;28;20034;-84
2023/02/05 06:53:38;;;;;;;86.57;33.42;;;6.20;99.90;;;-144.05;85.82;57018.75;5009358;28;20030;-83
2023/02/05 06:56:05;;;;;;;84.65;33.33;;;6.20;99.90;;;-144.05;85.97;57031.50;5007902;28;20052;-84
2023/02/05 06:58:30;;;;;;;82.75;33.13;;;6.20;99.90;;;-144.05;86.09;57003.88;5027681;28;20041;-84
2023/02/05 07:00:56;;;;;;;85.13;33.50;;;6.20;99.90;;;-144.05;85.49;57008.13;5013064;28;20064;-83
2023/02/05 07:03:22;;;;;;;89.10;35.78;;;6.30;99.90;;;-144.05;85.73;57025.13;5030526;28;20037;-83
2023/02/05 07:05:48;;;;;;;89.15;35.03;;;6.30;99.90;;;-144.05;85.80;57023.00;5028384;28;20029;-81
2023/02/05 07:08:14;;;;;;;89.47;36.67;;;6.30;99.90;;;-144.05;85.98;56997.50;5009272;28;20042;-84
2023/02/05 07:10:40;;;;;;;93.50;35.80;;;6.30;99.90;;;-144.05;85.80;56995.38;5025875;28;20445;-84
2023/02/05 07:13:06;;;;;;;92.93;36.45;;;6.30;99.90;;;-144.05;85.96;57001.75;5022442;28;20081;-84
2023/02/05 07:15:36;;;;;;;88.75;37.33;;;6.30;99.90;;;-144.05;85.44;57018.75;5021952;28;20023;-84
2023/02/05 07:18:03;;;;;;;91.43;35.97;;;6.40;99.90;;;-144.05;85.86;57018.75;5008574;28;20097;-83
2023/02/05 07:20:30;;;;;;;94.10;37.05;;;6.30;99.90;;;-144.05;85.69;57023.00;5009523;28;20036;-84
2023/02/05 07:22:59;;;;;;;86.85;37.22;;;6.40;99.90;;;-144.05;85.70;57025.13;5008131;28;20464;-83
2023/02/05 07:25:25;;;;;;;100.80;38.17;;;6.40;99.90;;;-144.05;85.52;57031.50;5007580;28;20038;-84
2023/02/05 07:27:51;;;;;;;90.22;37.47;;;6.40;99.90;;;-144.05;85.98;57014.50;5008482;28;20094;-84
2023/02/05 07:30:17;;;;;;;89.10;36.45;;;6.40;99.90;;;-144.05;85.87;57020.88;5026703;28;20030;-85
2023/02/05 07:32:43;;;;;;;93.57;36.88;;;6.40;99.90;;;-144.05;85.52;57048.50;5007447;28;20022;-84
2023/02/05 07:35:09;;;;;;;97.70;39.83;;;6.40;99.90;;;-144.05;85.48;57033.63;5006267;28;20033;-84
2023/02/05 07:37:36;;;;;;;86.95;36.25;;;6.40;99.90;;;-144.05;85.59;57033.63;5003446;28;20033;-85
2023/02/05 07:40:03;;;;;;;86.38;38.30;;;6.40;99.90;;;-144.05;85.62;57018.75;5020871;28;20045;-84
2023/02/05 07:42:30;;;;;;;86.65;37.78;;;6.40;99.90;;;-144.05;85.25;57003.88;5021686;28;20048;-82
2023/02/05 07:44:56;;;;;;;82.00;35.97;;;6.60;99.90;;;-144.05;85.15;57001.75;5020914;28;20065;-84
2023/02/05 07:47:21;;;;;;;79.40;33.67;;;6.50;99.90;;;-144.05;85.32;57033.63;5021508;28;20026;-83
2023/02/05 07:49:47;;;;;;;84.07;34.33;;;6.50;99.90;;;-144.05;85.58;56993.25;5021870;28;20044;-83
2023/02/05 07:52:13;;;;;;;69.35;32.65;;;6.50;99.90;;;-144.05;85.63;57010.25;5006543;28;20026;-85
2023/02/05 07:54:40;;;;;;;76.40;32.95;;;6.60;99.90;;;-144.05;85.15;57040.00;5005872;28;20030;-85
2023/02/05 07:57:06;;;;;;;63.13;29.73;;;6.60;99.90;;;-144.05;85.26;57025.13;5015803;28;20040;-82
2023/02/05 07:59:31;;;;;;;63.50;28.15;;;6.50;99.90;;;-144.05;84.87;57020.88;5039665;28;20025;-82
2023/02/05 08:01:57;;;;;;;63.45;28.50;;;6.50;99.90;;;-144.05;85.19;57014.50;5022804;28;20038;-80
2023/02/05 08:04:23;;;;;;;58.90;26.67;;;6.60;99.90;;;-144.05;85.07;57018.75;5022835;28;20021;-80
2023/02/05 08:06:49;;;;;;;57.30;26.25;;;6.60;99.90;;;-144.05;84.83;57008.13;5022622;28;20036;-82
2023/02/05 08:09:15;;;;;;;48.10;23.42;;;6.60;99.90;;;-144.05;84.96;57048.50;5027813;28;20034;-83
2023/02/05 08:11:41;;;;;;;49.80;23.85;;;6.60;99.90;;;-144.05;84.74;57031.50;5003341;28;20037;-82
2023/02/05 08:14:07;;;;;;;41.67;19.83;;;6.50;99.90;;;-144.05;83.92;57001.75;5019240;28;20038;-84
2023/02/05 08:16:33;;;;;;;35.97;18.17;;;6.50;99.90;;;-144.05;83.40;57012.38;5002653;28;20022;-84
2023/02/05 08:18:59;;;;;;;35.05;18.38;;;6.50;99.90;;;-144.05;83.13;57042.13;4999274;28;20022;-84
2023/02/05 08:21:25;;;;;;;35.70;18.42;;;6.50;99.90;;;-144.05;83.35;57025.13;5000284;28;20398;-84
2023/02/05 08:23:51;;;;;;;38.70;18.50;;;6.50;99.90;;;-144.05;83.54;57014.50;5017824;28;20121;-83
2023/02/05 08:26:17;;;;;;;33.15;17.63;;;6.40;99.90;;;-144.05;83.54;57010.25;5018372;28;20026;-83
2023/02/05 08:28:44;;;;;;;31.92;16.25;;;6.40;99.90;;;-144.05;82.96;57014.50;5002897;28;20033;-84
2023/02/05 08:31:18;;;;;;;30.10;15.40;;;6.40;99.90;;;-144.05;82.57;57033.63;5000878;28;20374;-84
2023/02/05 08:33:45;;;;;;;34.03;15.35;;;6.30;99.90;;;-144.05;82.86;57014.50;5001951;28;20099;-83
2023/02/05 08:36:11;;;;;;;28.00;14.65;;;6.30;99.90;;;-144.05;82.86;57020.88;5000638;28;20029;-81
2023/02/05 08:38:37;;;;;;;32.22;16.73;;;6.30;99.90;;;-144.05;82.94;57006.00;5016199;28;20478;-82
2023/02/05 08:41:12;;;;;;;30.70;16.55;;;6.30;99.90;;;-144.05;83.13;57018.75;5000490;28;20430;-82
2023/02/05 08:43:49;;;;;;;33.47;16.90;;;6.40;99.90;;;-144.05;82.81;57001.75;5000034;28;20034;-83
2023/02/05 08:46:24;;;;;;;38.03;19.60;;;6.30;99.90;;;-144.05;83.10;57018.75;4999048;28;20102;-84
2023/02/05 08:48:51;;;;;;;34.97;17.13;;;6.30;99.90;;;-144.05;83.08;57042.13;4998622;28;20397;-83
2023/02/05 08:51:19;;;;;;;40.65;18.85;;;6.30;99.90;;;-144.05;83.31;57006.00;4998845;28;20085;-83
2023/02/05 08:53:45;;;;;;;33.75;18.05;;;6.30;99.90;;;-144.05;83.47;57010.25;4999647;28;20034;-84
2023/02/05 08:56:12;;;;;;;36.58;20.38;;;6.30;99.90;;;-144.05;84.02;57040.00;5013954;28;20458;-84
2023/02/05 08:58:40;;;;;;;30.40;17.67;;;6.40;99.90;;;-144.05;84.57;57035.75;4998355;28;20065;-82
2023/02/05 09:01:13;;;;;;;31.92;17.55;;;6.30;99.90;;;-144.05;84.16;57059.09;4999821;28;20430;-83
2023/02/05 09:03:40;;;;;;;22.80;13.57;;;6.30;99.90;;;-144.05;84.01;57031.50;4998979;28;20038;-87
2023/02/05 09:06:14;;;;;;;17.42;10.05;;;6.40;99.90;;;-144.05;83.57;57018.75;4999740;28;20041;-82
2023/02/05 09:08:40;;;;;;;16.33;7.78;;;6.30;99.90;;;-144.05;83.69;57048.50;5015996;28;20026;-82
2023/02/05 09:11:07;;;;;;;12.43;6.68;;;6.30;99.90;;;-144.05;82.81;57025.13;5000559;28;20486;-85
2023/02/05 09:13:33;;;;;;;11.15;6.10;;;6.20;99.90;;;-144.05;82.59;57031.50;4999616;28;20124;-84
2023/02/05 09:15:59;;;;;;;10.90;4.60;;;6.20;99.90;;;-144.05;82.46;57046.38;4998518;28;20054;-83
2023/02/05 09:18:25;;;;;;;9.70;5.25;;;6.10;99.90;;;-144.05;82.04;57046.38;4998760;28;20030;-84
2023/02/05 09:20:53;;;;;;;7.57;3.90;;;6.10;99.90;;;-144.05;82.16;57025.13;4998999;28;20036;-83
2023/02/05 09:23:19;;;;;;;7.88;3.60;;;6.10;99.90;;;-144.05;82.11;57018.75;4998709;28;20026;-82
2023/02/05 09:25:45;;;;;;;6.50;2.90;;;6.10;99.90;;;-144.05;82.22;57056.97;5015182;28;20037;-83
2023/02/05 09:28:14;;;;;;;6.03;2.90;;;6.20;99.90;;;-144.05;81.69;57008.13;4998560;28;20030;-83
2023/02/05 09:30:44;;;;;;;5.18;2.33;;;6.10;99.90;;;-144.05;81.64;57008.13;4998681;28;20041;-84
2023/02/05 09:33:12;;;;;;;5.97;1.75;;;6.10;99.90;;;-144.05;81.55;57031.50;4998968;28;20026;-82
2023/02/05 09:35:39;;;;;;;6.07;1.73;;;6.00;99.90;;;-144.05;81.34;57014.50;4999293;28;20034;-81
2023/02/05 09:38:05;;;;;;;3.22;1.65;;;6.00;99.90;;;-144.05;81.66;57014.50;5016956;28;20030;-80
2023/02/05 09:40:53;;;;;;;3.40;1.63;;;6.10;99.90;;;-144.05;81.31;57059.09;4999247;28;20530;-79
2023/02/05 09:43:50;;;;;;;3.85;2.33;;;6.10;99.90;;;-144.05;81.64;57014.50;4999902;28;20037;-81
2023/02/05 09:46:18;;;;;;;;;;;6.10;99.90;;;-144.05;80.87;57018.75;5002725;28;20026;-82
2023/02/05 09:48:57;;;;;;;6.07;2.47;;;6.10;99.90;;;-144.05;80.90;57035.75;4999657;28;19913;-82
2023/02/05 09:51:50;;;;;;;2.70;0.90;;;6.10;99.90;;;-144.05;81.30;57035.75;5017329;28;20026;-81
2023/02/05 09:54:27;;;;;;;3.22;1.33;;;6.00;99.90;;;-144.05;80.82;57023.00;4997935;28;20041;-83
2023/02/05 09:57:03;;;;;;;6.28;1.23;;;6.10;99.90;;;-144.05;80.97;57031.50;4985862;28;20026;-80
2023/02/05 09:59:32;;;;;;;;;;;6.10;99.90;;;-144.05;81.59;57040.00;4988582;28;20064;-83
2023/02/05 10:02:32;;;;;;;3.00;1.10;;;6.10;99.90;;;-144.05;81.22;57018.75;4987847;28;19920;-84
2023/02/05 10:04:57;;;;;;;4.97;0.82;;;6.10;99.90;;;-144.05;80.92;57025.13;4995264;28;20501;-82
2023/02/05 10:07:36;;;;;;;1.73;0.85;;;6.00;99.90;;;-144.05;81.31;57006.00;4986566;28;20026;-83
2023/02/05 10:10:22;;;;;;;3.42;1.30;;;6.00;99.90;;;-144.05;81.31;57023.00;5017035;28;20031;-81
2023/02/05 10:13:38;;;;;;;1.50;0.70;;;6.10;99.90;;;-144.05;81.14;57001.75;4997260;28;20595;-83
2023/02/05 10:16:48;;;;;;;3.63;1.02;;;6.10;99.90;;;-144.05;81.08;57029.38;4999893;28;20058;-83
2023/02/05 10:20:04;;;;;;;1.33;0.55;;;6.20;99.90;;;-144.05;80.79;57014.50;4985580;28;20032;-81
2023/02/05 10:23:15;;;;;;;1.30;0.60;;;6.40;99.90;;;-144.05;80.87;57014.50;4990196;28;20049;-83
2023/02/05 10:26:13;;;;;;;1.98;0.73;;;6.40;99.90;;;-144.05;80.89;57025.13;5011768;28;20030;-80
2023/02/05 10:29:13;;;;;;;3.38;0.82;;;6.40;99.90;;;-144.05;81.12;57027.25;4996038;28;20139;-83
2023/02/05 10:32:21;;;;;;;2.42;0.80;;;6.50;99.90;;;-144.05;81.46;57018.75;4979511;28;20049;-81
2023/02/05 10:35:16;;;;;;;1.50;0.55;;;6.30;99.90;;;-144.05;81.57;57010.25;4996555;28;20026;-82
2023/02/05 10:37:54;;;;;;;4.05;0.90;;;6.30;99.90;;;-144.05;81.77;57025.13;4979344;28;20106;-83
2023/02/05 10:40:33;;;;;;;3.28;0.73;;;6.30;99.90;;;-144.05;82.14;57010.25;4979237;28;20117;-82
2023/02/05 10:43:37;;;;;;;5.25;0.77;;;6.30;99.90;;;-144.05;82.36;57020.88;4978183;28;20036;-80
2023/02/05 10:46:13;;;;;;;3.45;0.63;;;6.30;99.90;;;-144.05;82.22;57012.38;4980239;28;20026;-83
2023/02/05 10:48:50;;;;;;;1.05;0.55;;;6.30;99.90;;;-144.05;82.42;57042.13;4978948;28;20557;-82
2023/02/05 10:51:32;;;;;;;7.25;0.85;;;6.20;99.90;;;-144.05;82.28;57044.25;4977847;28;20060;-82
2023/02/05 10:54:00;;;;;;;1.70;0.90;;;6.20;99.90;;;-144.05;82.54;57029.38;4978649;28;20033;-82
2023/02/05 10:56:26;;;;;;;4.28;0.90;;;6.30;99.90;;;-144.05;82.54;57027.25;4978898;28;20402;-81
2023/02/05 10:59:03;;;;;;;3.10;0.90;;;6.30;99.90;;;-144.05;82.66;57006.00;4978472;28;20124;-83
2023/02/05 11:01:36;;;;;;;4.43;1.30;;;6.30;99.90;;;-144.05;82.69;57031.50;4977983;28;20036;-83
2023/02/05 11:04:23;;;;;;;5.88;1.25;;;6.20;99.90;;;-144.05;82.74;57035.75;4978052;28;20038;-82
2023/02/05 11:06:52;;;;;;;4.32;1.88;;;6.20;99.90;;;-144.05;82.76;57018.75;4978654;28;20034;-83
2023/02/05 11:09:24;;;;;;;6.80;1.63;;;6.20;99.90;;;-144.05;82.89;57025.13;4979417;28;20041;-86
2023/02/05 11:12:29;;;;;;;1.60;1.35;;;6.10;99.90;;;-144.05;82.89;57018.75;4979604;28;20129;-84
2023/02/05 11:15:01;;;;;;;3.10;0.98;;;6.10;99.90;;;-144.05;82.93;57044.25;4989422;28;20069;-83
2023/02/05 11:17:36;;;;;;;4.22;1.90;;;6.20;99.90;;;-144.05;82.90;57027.25;4995816;28;20030;-82
2023/02/05 11:20:17;;;;;;;4.20;1.00;;;6.10;99.90;;;-144.05;83.19;57018.75;4977815;28;20058;-81
2023/02/05 11:22:46;;;;;;;5.47;2.88;;;6.20;99.90;;;-144.05;83.07;57029.38;4977613;28;20034;-83
2023/02/05 11:25:27;;;;;;;10.27;2.78;;;6.10;99.90;;;-144.05;83.22;57027.25;4979210;28;20034;-81
2023/02/05 11:28:04;;;;;;;10.57;3.47;;;6.10;99.90;;;-144.05;83.32;57044.25;4981494;28;20026;-85
2023/02/05 11:30:35;;;;;;;95.95;36.03;;;6.10;99.90;;;-144.05;83.26;57014.50;4982290;28;20034;-81
2023/02/05 11:33:28;;;;;;;9.07;2.88;;;6.10;99.90;;;-144.05;83.54;57016.63;5000660;28;20034;-83
2023/02/05 11:36:08;;;;;;;4.40;1.15;;;6.10;99.90;;;-144.05;83.42;57027.25;4993752;28;20058;-82
2023/02/05 11:38:53;;;;;;;1.48;0.85;;;6.10;99.90;;;-144.05;83.81;57018.75;4981544;28;20023;-84
2023/02/05 11:41:50;;;;;;;10.85;4.65;;;6.10;99.90;;;-144.05;83.67;57014.50;4981865;28;20022;-82
2023/02/05 11:44:31;;;;;;;4.43;2.15;;;6.20;99.90;;;-144.05;83.85;57023.00;5000783;28;20057;-83
2023/02/05 11:47:00;;;;;;;4.78;1.08;;;6.20;99.90;;;-144.05;83.46;57031.50;4998633;28;20038;-84
2023/02/05 11:49:39;;;;;;;2.08;1.20;;;6.10;99.90;;;-144.05;83.46;57006.00;4981396;28;20136;-83
2023/02/05 11:52:14;;;;;;;4.97;1.38;;;6.20;99.90;;;-144.05;84.46;57025.13;4982611;28;20060;-85
2023/02/05 11:54:47;;;;;;;2.88;1.13;;;6.20;99.90;;;-144.05;84.57;57018.75;4982544;28;20474;-85
2023/02/05 11:57:16;;;;;;;5.72;1.50;;;6.10;99.90;;;-144.05;84.91;57023.00;4981125;28;20176;-82
2023/02/05 12:00:08;;;;;;;3.97;1.85;;;6.10;99.90;;;-144.05;84.57;57035.75;4981588;28;20032;-83